sensor_id;sensor_type;location;lat;lon;timestamp;P1;durP1;ratioP1;P2;durP2;ratioP2
10122;SDS011;5101;49.038;8.710;2023-09-30T00:00:06;2.80;;;1.80;;
10122;SDS011;5101;49.038;8.710;2023-09-30T00:02:33;6.13;;;1.52;;
10122;SDS011;5101;49.038;8.710;2023-09-30T00:04:59;3.95;;;1.90;;
10122;SDS011;5101;49.038;8.710;2023-09-30T00:07:24;2.40;;;1.85;;
10122;SDS011;5101;49.038;8.710;2023-09-30T00:09:51;2.50;;;1.90;;
10122;SDS011;5101;49.038;8.710;2023-09-30T00:12:17;4.05;;;2.00;;
10122;SDS011;5101;49.038;8.710;2023-09-30T00:14:42;3.55;;;1.80;;
10122;SDS011;5101;49.038;8.710;2023-09-30T00:17:08;2.50;;;1.60;;
10122;SDS011;5101;49.038;8.710;2023-09-30T00:19:33;2.95;;;1.92;;
10122;SDS011;5101;49.038;8.710;2023-09-30T00:21:59;3.50;;;2.13;;
10122;SDS011;5101;49.038;8.710;2023-09-30T00:24:28;3.00;;;1.75;;
10122;SDS011;5101;49.038;8.710;2023-09-30T00:26:54;3.75;;;1.60;;
10122;SDS011;5101;49.038;8.710;2023-09-30T00:29:19;2.63;;;1.73;;
10122;SDS011;5101;49.038;8.710;2023-09-30T00:31:45;4.40;;;2.30;;
10122;SDS011;5101;49.038;8.710;2023-09-30T00:34:10;3.22;;;2.03;;
10122;SDS011;5101;49.038;8.710;2023-09-30T00:36:36;5.88;;;2.13;;
10122;SDS011;5101;49.038;8.710;2023-09-30T00:39:01;3.28;;;1.88;;
10122;SDS011;5101;49.038;8.710;2023-09-30T00:41:27;4.72;;;1.60;;
10122;SDS011;5101;49.038;8.710;2023-09-30T00:43:52;4.13;;;1.70;;
10122;SDS011;5101;49.038;8.710;2023-09-30T00:46:32;3.35;;;1.48;;
10122;SDS011;5101;49.038;8.710;2023-09-30T00:48:58;5.65;;;1.90;;
10122;SDS011;5101;49.038;8.710;2023-09-30T00:51:25;2.47;;;1.98;;
10122;SDS011;5101;49.038;8.710;2023-09-30T00:53:52;3.15;;;1.75;;
10122;SDS011;5101;49.038;8.710;2023-09-30T00:56:19;2.97;;;1.95;;
10122;SDS011;5101;49.038;8.710;2023-09-30T00:58:46;3.45;;;1.90;;
10122;SDS011;5101;49.038;8.710;2023-09-30T01:01:13;2.47;;;2.17;;
10122;SDS011;5101;49.038;8.710;2023-09-30T01:03:40;2.58;;;1.70;;
10122;SDS011;5101;49.038;8.710;2023-09-30T01:06:06;3.25;;;1.98;;
10122;SDS011;5101;49.038;8.710;2023-09-30T01:08:31;3.20;;;1.88;;
10122;SDS011;5101;49.038;8.710;2023-09-30T01:10:57;2.80;;;1.90;;
10122;SDS011;5101;49.038;8.710;2023-09-30T01:13:23;3.25;;;1.92;;
10122;SDS011;5101;49.038;8.710;2023-09-30T01:16:03;3.33;;;1.90;;
10122;SDS011;5101;49.038;8.710;2023-09-30T01:18:29;4.90;;;1.95;;
10122;SDS011;5101;49.038;8.710;2023-09-30T01:20:55;2.45;;;1.80;;
10122;SDS011;5101;49.038;8.710;2023-09-30T01:23:21;2.88;;;2.15;;
10122;SDS011;5101;49.038;8.710;2023-09-30T01:25:47;2.40;;;1.70;;
10122;SDS011;5101;49.038;8.710;2023-09-30T01:28:12;2.80;;;1.73;;
10122;SDS011;5101;49.038;8.710;2023-09-30T01:30:39;4.47;;;2.00;;
10122;SDS011;5101;49.038;8.710;2023-09-30T01:33:06;3.58;;;1.83;;
10122;SDS011;5101;49.038;8.710;2023-09-30T01:35:32;1.98;;;1.83;;
10122;SDS011;5101;49.038;8.710;2023-09-30T01:37:58;3.42;;;2.00;;
10122;SDS011;5101;49.038;8.710;2023-09-30T01:40:23;4.90;;;1.75;;
10122;SDS011;5101;49.038;8.710;2023-09-30T01:42:49;3.00;;;2.00;;
10122;SDS011;5101;49.038;8.710;2023-09-30T01:45:14;2.35;;;1.80;;
10122;SDS011;5101;49.038;8.710;2023-09-30T01:47:40;2.60;;;1.90;;
10122;SDS011;5101;49.038;8.710;2023-09-30T01:50:05;1.83;;;1.67;;
10122;SDS011;5101;49.038;8.710;2023-09-30T01:52:31;1.90;;;1.70;;
10122;SDS011;5101;49.038;8.710;2023-09-30T01:54:57;1.67;;;1.58;;
10122;SDS011;5101;49.038;8.710;2023-09-30T01:57:22;2.85;;;2.05;;
10122;SDS011;5101;49.038;8.710;2023-09-30T01:59:48;3.83;;;1.88;;
10122;SDS011;5101;49.038;8.710;2023-09-30T02:02:14;3.10;;;1.98;;
10122;SDS011;5101;49.038;8.710;2023-09-30T02:04:40;3.75;;;2.00;;
10122;SDS011;5101;49.038;8.710;2023-09-30T02:07:06;2.72;;;1.73;;
10122;SDS011;5101;49.038;8.710;2023-09-30T02:09:31;3.22;;;1.90;;
10122;SDS011;5101;49.038;8.710;2023-09-30T02:11:57;2.50;;;2.10;;
10122;SDS011;5101;49.038;8.710;2023-09-30T02:14:22;3.00;;;2.00;;
10122;SDS011;5101;49.038;8.710;2023-09-30T02:16:48;3.42;;;1.80;;
10122;SDS011;5101;49.038;8.710;2023-09-30T02:19:13;2.90;;;1.80;;
10122;SDS011;5101;49.038;8.710;2023-09-30T02:21:39;3.00;;;1.80;;
10122;SDS011;5101;49.038;8.710;2023-09-30T02:24:04;2.25;;;1.80;;
10122;SDS011;5101;49.038;8.710;2023-09-30T02:26:32;3.53;;;1.50;;
10122;SDS011;5101;49.038;8.710;2023-09-30T02:28:57;2.42;;;1.95;;
10122;SDS011;5101;49.038;8.710;2023-09-30T02:31:23;3.22;;;2.00;;
10122;SDS011;5101;49.038;8.710;2023-09-30T02:33:49;1.60;;;1.50;;
10122;SDS011;5101;49.038;8.710;2023-09-30T02:36:14;1.80;;;1.70;;
10122;SDS011;5101;49.038;8.710;2023-09-30T02:38:40;1.98;;;1.50;;
10122;SDS011;5101;49.038;8.710;2023-09-30T02:41:06;2.97;;;1.58;;
10122;SDS011;5101;49.038;8.710;2023-09-30T02:43:32;2.70;;;1.67;;
10122;SDS011;5101;49.038;8.710;2023-09-30T02:45:58;1.63;;;1.50;;
10122;SDS011;5101;49.038;8.710;2023-09-30T02:48:23;3.13;;;1.70;;
10122;SDS011;5101;49.038;8.710;2023-09-30T02:50:49;2.15;;;1.75;;
10122;SDS011;5101;49.038;8.710;2023-09-30T02:53:15;2.83;;;1.70;;
10122;SDS011;5101;49.038;8.710;2023-09-30T02:55:41;2.25;;;1.70;;
10122;SDS011;5101;49.038;8.710;2023-09-30T02:58:07;3.38;;;1.60;;
10122;SDS011;5101;49.038;8.710;2023-09-30T03:00:33;2.25;;;1.70;;
10122;SDS011;5101;49.038;8.710;2023-09-30T03:03:00;1.83;;;1.73;;
10122;SDS011;5101;49.038;8.710;2023-09-30T03:05:27;2.63;;;1.45;;
10122;SDS011;5101;49.038;8.710;2023-09-30T03:07:53;3.53;;;1.75;;
10122;SDS011;5101;49.038;8.710;2023-09-30T03:10:20;3.28;;;1.63;;
10122;SDS011;5101;49.038;8.710;2023-09-30T03:12:48;4.55;;;1.90;;
10122;SDS011;5101;49.038;8.710;2023-09-30T03:15:20;2.88;;;1.77;;
10122;SDS011;5101;49.038;8.710;2023-09-30T03:17:46;3.20;;;2.00;;
10122;SDS011;5101;49.038;8.710;2023-09-30T03:20:12;3.15;;;1.80;;
10122;SDS011;5101;49.038;8.710;2023-09-30T03:22:39;2.78;;;1.48;;
10122;SDS011;5101;49.038;8.710;2023-09-30T03:25:06;2.60;;;2.00;;
10122;SDS011;5101;49.038;8.710;2023-09-30T03:27:33;3.17;;;1.70;;
10122;SDS011;5101;49.038;8.710;2023-09-30T03:29:59;2.95;;;1.52;;
10122;SDS011;5101;49.038;8.710;2023-09-30T03:32:26;3.40;;;1.75;;
10122;SDS011;5101;49.038;8.710;2023-09-30T03:34:52;3.80;;;1.67;;
10122;SDS011;5101;49.038;8.710;2023-09-30T03:37:17;2.13;;;1.80;;
10122;SDS011;5101;49.038;8.710;2023-09-30T03:39:43;4.10;;;1.88;;
10122;SDS011;5101;49.038;8.710;2023-09-30T03:42:08;3.20;;;1.98;;
10122;SDS011;5101;49.038;8.710;2023-09-30T03:44:36;3.40;;;2.08;;
10122;SDS011;5101;49.038;8.710;2023-09-30T03:47:03;2.72;;;2.05;;
10122;SDS011;5101;49.038;8.710;2023-09-30T03:49:29;5.40;;;2.38;;
10122;SDS011;5101;49.038;8.710;2023-09-30T03:51:55;3.72;;;2.10;;
10122;SDS011;5101;49.038;8.710;2023-09-30T03:54:20;4.07;;;1.80;;
10122;SDS011;5101;49.038;8.710;2023-09-30T03:56:47;3.45;;;2.30;;
10122;SDS011;5101;49.038;8.710;2023-09-30T03:59:12;3.33;;;1.80;;
10122;SDS011;5101;49.038;8.710;2023-09-30T04:01:38;3.50;;;1.98;;
10122;SDS011;5101;49.038;8.710;2023-09-30T04:04:05;3.92;;;2.08;;
10122;SDS011;5101;49.038;8.710;2023-09-30T04:06:32;3.05;;;2.15;;
10122;SDS011;5101;49.038;8.710;2023-09-30T04:08:58;4.28;;;1.83;;
10122;SDS011;5101;49.038;8.710;2023-09-30T04:11:24;2.55;;;1.90;;
10122;SDS011;5101;49.038;8.710;2023-09-30T04:13:50;4.40;;;1.80;;
10122;SDS011;5101;49.038;8.710;2023-09-30T04:16:15;4.20;;;1.70;;
10122;SDS011;5101;49.038;8.710;2023-09-30T04:18:43;2.28;;;1.90;;
10122;SDS011;5101;49.038;8.710;2023-09-30T04:21:09;3.75;;;2.00;;
10122;SDS011;5101;49.038;8.710;2023-09-30T04:23:34;2.78;;;1.85;;
10122;SDS011;5101;49.038;8.710;2023-09-30T04:26:01;3.33;;;1.95;;
10122;SDS011;5101;49.038;8.710;2023-09-30T04:28:27;2.97;;;2.08;;
10122;SDS011;5101;49.038;8.710;2023-09-30T04:30:53;3.42;;;2.03;;
10122;SDS011;5101;49.038;8.710;2023-09-30T04:33:19;2.30;;;1.92;;
10122;SDS011;5101;49.038;8.710;2023-09-30T04:35:45;2.03;;;1.92;;
10122;SDS011;5101;49.038;8.710;2023-09-30T04:38:10;3.00;;;2.42;;
10122;SDS011;5101;49.038;8.710;2023-09-30T04:40:36;2.78;;;2.03;;
10122;SDS011;5101;49.038;8.710;2023-09-30T04:43:02;2.60;;;2.13;;
10122;SDS011;5101;49.038;8.710;2023-09-30T04:45:28;3.40;;;2.30;;
10122;SDS011;5101;49.038;8.710;2023-09-30T04:47:54;3.30;;;1.80;;
10122;SDS011;5101;49.038;8.710;2023-09-30T04:50:21;2.97;;;1.92;;
10122;SDS011;5101;49.038;8.710;2023-09-30T04:52:47;3.60;;;1.80;;
10122;SDS011;5101;49.038;8.710;2023-09-30T04:55:13;3.05;;;2.25;;
10122;SDS011;5101;49.038;8.710;2023-09-30T04:57:41;2.35;;;1.80;;
10122;SDS011;5101;49.038;8.710;2023-09-30T05:00:09;2.40;;;2.17;;
10122;SDS011;5101;49.038;8.710;2023-09-30T05:02:36;4.88;;;2.35;;
10122;SDS011;5101;49.038;8.710;2023-09-30T05:05:02;4.18;;;2.10;;
10122;SDS011;5101;49.038;8.710;2023-09-30T05:07:31;3.95;;;2.75;;
10122;SDS011;5101;49.038;8.710;2023-09-30T05:09:56;4.40;;;2.90;;
10122;SDS011;5101;49.038;8.710;2023-09-30T05:12:22;2.38;;;2.17;;
10122;SDS011;5101;49.038;8.710;2023-09-30T05:14:48;5.40;;;2.05;;
10122;SDS011;5101;49.038;8.710;2023-09-30T05:17:14;4.53;;;2.15;;
10122;SDS011;5101;49.038;8.710;2023-09-30T05:19:39;2.65;;;2.00;;
10122;SDS011;5101;49.038;8.710;2023-09-30T05:22:05;2.85;;;1.83;;
10122;SDS011;5101;49.038;8.710;2023-09-30T05:24:30;6.17;;;2.30;;
10122;SDS011;5101;49.038;8.710;2023-09-30T05:26:56;5.20;;;2.77;;
10122;SDS011;5101;49.038;8.710;2023-09-30T05:29:21;4.72;;;2.40;;
10122;SDS011;5101;49.038;8.710;2023-09-30T05:31:47;6.10;;;2.72;;
10122;SDS011;5101;49.038;8.710;2023-09-30T05:34:13;5.30;;;2.53;;
10122;SDS011;5101;49.038;8.710;2023-09-30T05:36:38;3.27;;;2.57;;
10122;SDS011;5101;49.038;8.710;2023-09-30T05:39:04;2.35;;;2.13;;
10122;SDS011;5101;49.038;8.710;2023-09-30T05:41:33;2.95;;;2.20;;
10122;SDS011;5101;49.038;8.710;2023-09-30T05:43:58;5.88;;;2.00;;
10122;SDS011;5101;49.038;8.710;2023-09-30T05:46:24;4.72;;;2.72;;
10122;SDS011;5101;49.038;8.710;2023-09-30T05:48:50;4.80;;;2.25;;
10122;SDS011;5101;49.038;8.710;2023-09-30T05:51:15;7.90;;;2.33;;
10122;SDS011;5101;49.038;8.710;2023-09-30T05:53:43;8.00;;;3.20;;
10122;SDS011;5101;49.038;8.710;2023-09-30T05:56:09;5.97;;;2.97;;
10122;SDS011;5101;49.038;8.710;2023-09-30T05:58:40;8.48;;;2.50;;
10122;SDS011;5101;49.038;8.710;2023-09-30T06:01:08;9.93;;;2.42;;
10122;SDS011;5101;49.038;8.710;2023-09-30T06:03:37;5.47;;;2.22;;
10122;SDS011;5101;49.038;8.710;2023-09-30T06:06:13;3.78;;;2.50;;
10122;SDS011;5101;49.038;8.710;2023-09-30T06:08:40;7.30;;;2.22;;
10122;SDS011;5101;49.038;8.710;2023-09-30T06:11:07;5.90;;;2.47;;
10122;SDS011;5101;49.038;8.710;2023-09-30T06:13:40;3.70;;;2.20;;
10122;SDS011;5101;49.038;8.710;2023-09-30T06:16:06;6.38;;;2.47;;
10122;SDS011;5101;49.038;8.710;2023-09-30T06:18:31;4.90;;;2.45;;
10122;SDS011;5101;49.038;8.710;2023-09-30T06:20:57;7.15;;;2.55;;
10122;SDS011;5101;49.038;8.710;2023-09-30T06:23:22;3.75;;;2.92;;
10122;SDS011;5101;49.038;8.710;2023-09-30T06:25:48;9.60;;;3.53;;
10122;SDS011;5101;49.038;8.710;2023-09-30T06:28:13;5.22;;;3.30;;
10122;SDS011;5101;49.038;8.710;2023-09-30T06:30:39;6.18;;;2.90;;
10122;SDS011;5101;49.038;8.710;2023-09-30T06:33:07;5.85;;;2.70;;
10122;SDS011;5101;49.038;8.710;2023-09-30T06:35:34;5.60;;;2.67;;
10122;SDS011;5101;49.038;8.710;2023-09-30T06:38:02;6.82;;;3.30;;
10122;SDS011;5101;49.038;8.710;2023-09-30T06:40:28;4.05;;;2.60;;
10122;SDS011;5101;49.038;8.710;2023-09-30T06:42:53;4.18;;;3.13;;
10122;SDS011;5101;49.038;8.710;2023-09-30T06:45:19;6.95;;;2.78;;
10122;SDS011;5101;49.038;8.710;2023-09-30T06:47:46;4.78;;;2.55;;
10122;SDS011;5101;49.038;8.710;2023-09-30T06:50:13;6.03;;;2.70;;
10122;SDS011;5101;49.038;8.710;2023-09-30T06:52:41;4.97;;;2.97;;
10122;SDS011;5101;49.038;8.710;2023-09-30T06:55:10;11.70;;;3.58;;
10122;SDS011;5101;49.038;8.710;2023-09-30T06:57:38;10.18;;;3.53;;
10122;SDS011;5101;49.038;8.710;2023-09-30T07:00:08;4.43;;;3.25;;
10122;SDS011;5101;49.038;8.710;2023-09-30T07:02:35;6.15;;;3.53;;
10122;SDS011;5101;49.038;8.710;2023-09-30T07:05:01;5.32;;;3.78;;
10122;SDS011;5101;49.038;8.710;2023-09-30T07:07:30;4.40;;;3.60;;
10122;SDS011;5101;49.038;8.710;2023-09-30T07:09:56;5.78;;;3.40;;
10122;SDS011;5101;49.038;8.710;2023-09-30T07:12:21;5.03;;;3.10;;
10122;SDS011;5101;49.038;8.710;2023-09-30T07:14:47;8.55;;;3.30;;
10122;SDS011;5101;49.038;8.710;2023-09-30T07:17:12;5.47;;;3.38;;
10122;SDS011;5101;49.038;8.710;2023-09-30T07:19:39;9.23;;;2.97;;
10122;SDS011;5101;49.038;8.710;2023-09-30T07:22:04;5.10;;;3.25;;
10122;SDS011;5101;49.038;8.710;2023-09-30T07:24:30;6.65;;;4.07;;
10122;SDS011;5101;49.038;8.710;2023-09-30T07:26:55;7.40;;;3.08;;
10122;SDS011;5101;49.038;8.710;2023-09-30T07:29:21;4.88;;;3.28;;
10122;SDS011;5101;49.038;8.710;2023-09-30T07:31:46;6.72;;;3.22;;
10122;SDS011;5101;49.038;8.710;2023-09-30T07:34:12;4.85;;;3.50;;
10122;SDS011;5101;49.038;8.710;2023-09-30T07:36:37;3.95;;;2.88;;
10122;SDS011;5101;49.038;8.710;2023-09-30T07:39:03;5.00;;;3.30;;
10122;SDS011;5101;49.038;8.710;2023-09-30T07:41:34;3.88;;;3.30;;
10122;SDS011;5101;49.038;8.710;2023-09-30T07:44:01;5.05;;;2.88;;
10122;SDS011;5101;49.038;8.710;2023-09-30T07:46:27;7.63;;;3.63;;
10122;SDS011;5101;49.038;8.710;2023-09-30T07:48:53;5.55;;;4.07;;
10122;SDS011;5101;49.038;8.710;2023-09-30T07:51:20;6.10;;;3.50;;
10122;SDS011;5101;49.038;8.710;2023-09-30T07:53:45;8.38;;;3.85;;
10122;SDS011;5101;49.038;8.710;2023-09-30T07:56:11;7.78;;;3.83;;
10122;SDS011;5101;49.038;8.710;2023-09-30T07:58:36;5.25;;;3.75;;
10122;SDS011;5101;49.038;8.710;2023-09-30T08:01:02;5.50;;;3.58;;
10122;SDS011;5101;49.038;8.710;2023-09-30T08:03:27;6.20;;;3.70;;
10122;SDS011;5101;49.038;8.710;2023-09-30T08:05:53;6.78;;;3.75;;
10122;SDS011;5101;49.038;8.710;2023-09-30T08:08:18;7.13;;;3.67;;
10122;SDS011;5101;49.038;8.710;2023-09-30T08:10:44;5.85;;;3.88;;
10122;SDS011;5101;49.038;8.710;2023-09-30T08:13:09;5.80;;;3.38;;
10122;SDS011;5101;49.038;8.710;2023-09-30T08:15:35;6.32;;;4.22;;
10122;SDS011;5101;49.038;8.710;2023-09-30T08:18:00;6.82;;;3.38;;
10122;SDS011;5101;49.038;8.710;2023-09-30T08:20:29;5.07;;;3.60;;
10122;SDS011;5101;49.038;8.710;2023-09-30T08:22:55;4.47;;;3.13;;
10122;SDS011;5101;49.038;8.710;2023-09-30T08:25:20;6.65;;;3.90;;
10122;SDS011;5101;49.038;8.710;2023-09-30T08:27:46;5.50;;;3.20;;
10122;SDS011;5101;49.038;8.710;2023-09-30T08:30:14;7.03;;;3.70;;
10122;SDS011;5101;49.038;8.710;2023-09-30T08:32:40;6.55;;;3.60;;
10122;SDS011;5101;49.038;8.710;2023-09-30T08:35:06;6.10;;;3.70;;
10122;SDS011;5101;49.038;8.710;2023-09-30T08:37:32;7.88;;;3.60;;
10122;SDS011;5101;49.038;8.710;2023-09-30T08:39:58;6.55;;;3.80;;
10122;SDS011;5101;49.038;8.710;2023-09-30T08:42:23;6.70;;;4.00;;
10122;SDS011;5101;49.038;8.710;2023-09-30T08:44:52;5.50;;;4.07;;
10122;SDS011;5101;49.038;8.710;2023-09-30T08:47:21;7.78;;;3.92;;
10122;SDS011;5101;49.038;8.710;2023-09-30T08:49:49;6.97;;;3.75;;
10122;SDS011;5101;49.038;8.710;2023-09-30T08:52:21;5.28;;;3.30;;
10122;SDS011;5101;49.038;8.710;2023-09-30T08:54:47;6.80;;;3.00;;
10122;SDS011;5101;49.038;8.710;2023-09-30T08:57:13;11.18;;;3.72;;
10122;SDS011;5101;49.038;8.710;2023-09-30T08:59:43;5.93;;;3.45;;
10122;SDS011;5101;49.038;8.710;2023-09-30T09:02:11;5.85;;;3.58;;
10122;SDS011;5101;49.038;8.710;2023-09-30T09:04:37;4.70;;;3.08;;
10122;SDS011;5101;49.038;8.710;2023-09-30T09:07:02;7.63;;;3.00;;
10122;SDS011;5101;49.038;8.710;2023-09-30T09:09:28;6.60;;;3.28;;
10122;SDS011;5101;49.038;8.710;2023-09-30T09:11:53;6.30;;;2.70;;
10122;SDS011;5101;49.038;8.710;2023-09-30T09:14:19;6.97;;;2.58;;
10122;SDS011;5101;49.038;8.710;2023-09-30T09:17:00;4.28;;;2.65;;
10122;SDS011;5101;49.038;8.710;2023-09-30T09:19:26;3.53;;;2.70;;
10122;SDS011;5101;49.038;8.710;2023-09-30T09:21:55;3.75;;;2.83;;
10122;SDS011;5101;49.038;8.710;2023-09-30T09:24:36;6.30;;;3.10;;
10122;SDS011;5101;49.038;8.710;2023-09-30T09:27:08;5.07;;;2.60;;
10122;SDS011;5101;49.038;8.710;2023-09-30T09:29:37;4.28;;;2.78;;
10122;SDS011;5101;49.038;8.710;2023-09-30T09:34:37;7.78;;;3.03;;
10122;SDS011;5101;49.038;8.710;2023-09-30T09:37:16;3.97;;;2.40;;
10122;SDS011;5101;49.038;8.710;2023-09-30T09:39:50;6.50;;;2.95;;
10122;SDS011;5101;49.038;8.710;2023-09-30T09:44:59;5.00;;;3.30;;
10122;SDS011;5101;49.038;8.710;2023-09-30T09:47:27;4.43;;;2.47;;
10122;SDS011;5101;49.038;8.710;2023-09-30T09:49:54;6.18;;;2.67;;
10122;SDS011;5101;49.038;8.710;2023-09-30T09:52:22;3.67;;;2.67;;
10122;SDS011;5101;49.038;8.710;2023-09-30T09:54:50;5.20;;;2.72;;
10122;SDS011;5101;49.038;8.710;2023-09-30T09:57:16;5.15;;;2.80;;
10122;SDS011;5101;49.038;8.710;2023-09-30T09:59:44;5.30;;;3.30;;
10122;SDS011;5101;49.038;8.710;2023-09-30T10:02:14;4.20;;;2.92;;
10122;SDS011;5101;49.038;8.710;2023-09-30T10:04:41;5.28;;;2.80;;
10122;SDS011;5101;49.038;8.710;2023-09-30T10:07:09;4.43;;;3.00;;
10122;SDS011;5101;49.038;8.710;2023-09-30T10:09:46;5.28;;;2.90;;
10122;SDS011;5101;49.038;8.710;2023-09-30T10:12:15;4.28;;;2.53;;
10122;SDS011;5101;49.038;8.710;2023-09-30T10:14:42;7.07;;;2.65;;
10122;SDS011;5101;49.038;8.710;2023-09-30T10:17:07;5.53;;;2.90;;
10122;SDS011;5101;49.038;8.710;2023-09-30T10:19:33;4.70;;;2.70;;
10122;SDS011;5101;49.038;8.710;2023-09-30T10:24:46;3.95;;;2.72;;
10122;SDS011;5101;49.038;8.710;2023-09-30T10:29:54;5.30;;;2.75;;
10122;SDS011;5101;49.038;8.710;2023-09-30T10:37:52;5.25;;;3.20;;
10122;SDS011;5101;49.038;8.710;2023-09-30T10:40:46;4.72;;;2.85;;
10122;SDS011;5101;49.038;8.710;2023-09-30T10:46:00;5.07;;;2.72;;
10122;SDS011;5101;49.038;8.710;2023-09-30T10:50:53;3.85;;;2.90;;
10122;SDS011;5101;49.038;8.710;2023-09-30T10:53:25;4.85;;;2.95;;
10122;SDS011;5101;49.038;8.710;2023-09-30T10:55:55;5.18;;;2.70;;
10122;SDS011;5101;49.038;8.710;2023-09-30T10:58:22;4.68;;;2.75;;
10122;SDS011;5101;49.038;8.710;2023-09-30T11:01:04;3.85;;;2.53;;
10122;SDS011;5101;49.038;8.710;2023-09-30T11:03:29;5.18;;;2.70;;
10122;SDS011;5101;49.038;8.710;2023-09-30T11:05:55;3.58;;;2.25;;
10122;SDS011;5101;49.038;8.710;2023-09-30T11:08:21;4.57;;;2.42;;
10122;SDS011;5101;49.038;8.710;2023-09-30T11:10:50;4.25;;;2.33;;
10122;SDS011;5101;49.038;8.710;2023-09-30T11:13:17;5.13;;;2.78;;
10122;SDS011;5101;49.038;8.710;2023-09-30T11:15:43;3.42;;;2.63;;
10122;SDS011;5101;49.038;8.710;2023-09-30T11:18:13;5.95;;;2.95;;
10122;SDS011;5101;49.038;8.710;2023-09-30T11:20:42;7.00;;;2.70;;
10122;SDS011;5101;49.038;8.710;2023-09-30T11:23:09;3.65;;;2.63;;
10122;SDS011;5101;49.038;8.710;2023-09-30T11:25:39;5.25;;;2.92;;
10122;SDS011;5101;49.038;8.710;2023-09-30T11:28:15;6.35;;;3.10;;
10122;SDS011;5101;49.038;8.710;2023-09-30T11:31:00;3.63;;;2.50;;
10122;SDS011;5101;49.038;8.710;2023-09-30T11:33:31;4.28;;;2.50;;
10122;SDS011;5101;49.038;8.710;2023-09-30T11:36:02;4.65;;;3.22;;
10122;SDS011;5101;49.038;8.710;2023-09-30T11:38:30;4.97;;;2.92;;
10122;SDS011;5101;49.038;8.710;2023-09-30T11:40:58;3.90;;;3.25;;
10122;SDS011;5101;49.038;8.710;2023-09-30T11:43:30;5.53;;;3.03;;
10122;SDS011;5101;49.038;8.710;2023-09-30T11:48:39;4.72;;;3.03;;
10122;SDS011;5101;49.038;8.710;2023-09-30T11:51:21;4.50;;;2.80;;
10122;SDS011;5101;49.038;8.710;2023-09-30T11:53:49;4.32;;;2.95;;
10122;SDS011;5101;49.038;8.710;2023-09-30T11:56:22;4.70;;;2.90;;
10122;SDS011;5101;49.038;8.710;2023-09-30T11:58:53;4.68;;;3.10;;
10122;SDS011;5101;49.038;8.710;2023-09-30T12:01:19;5.18;;;2.83;;
10122;SDS011;5101;49.038;8.710;2023-09-30T12:03:46;4.60;;;3.00;;
10122;SDS011;5101;49.038;8.710;2023-09-30T12:06:16;4.80;;;3.22;;
10122;SDS011;5101;49.038;8.710;2023-09-30T12:08:42;5.10;;;3.28;;
10122;SDS011;5101;49.038;8.710;2023-09-30T12:11:08;7.10;;;3.20;;
10122;SDS011;5101;49.038;8.710;2023-09-30T12:13:37;5.13;;;2.90;;
10122;SDS011;5101;49.038;8.710;2023-09-30T12:16:03;4.43;;;2.90;;
10122;SDS011;5101;49.038;8.710;2023-09-30T12:18:29;6.63;;;3.53;;
10122;SDS011;5101;49.038;8.710;2023-09-30T12:20:55;5.30;;;3.17;;
10122;SDS011;5101;49.038;8.710;2023-09-30T12:23:21;5.10;;;2.65;;
10122;SDS011;5101;49.038;8.710;2023-09-30T12:25:47;4.32;;;3.50;;
10122;SDS011;5101;49.038;8.710;2023-09-30T12:28:13;5.78;;;3.53;;
10122;SDS011;5101;49.038;8.710;2023-09-30T12:30:42;4.45;;;2.95;;
10122;SDS011;5101;49.038;8.710;2023-09-30T12:33:08;4.05;;;2.88;;
10122;SDS011;5101;49.038;8.710;2023-09-30T12:35:34;4.57;;;2.88;;
10122;SDS011;5101;49.038;8.710;2023-09-30T12:38:00;5.95;;;3.50;;
10122;SDS011;5101;49.038;8.710;2023-09-30T12:40:26;4.25;;;3.10;;
10122;SDS011;5101;49.038;8.710;2023-09-30T12:42:52;5.43;;;3.00;;
10122;SDS011;5101;49.038;8.710;2023-09-30T12:45:17;5.38;;;3.08;;
10122;SDS011;5101;49.038;8.710;2023-09-30T12:47:43;4.93;;;3.30;;
10122;SDS011;5101;49.038;8.710;2023-09-30T12:50:09;4.32;;;3.28;;
10122;SDS011;5101;49.038;8.710;2023-09-30T12:52:35;7.35;;;3.55;;
10122;SDS011;5101;49.038;8.710;2023-09-30T12:55:01;4.25;;;3.20;;
10122;SDS011;5101;49.038;8.710;2023-09-30T12:57:27;5.45;;;3.28;;
10122;SDS011;5101;49.038;8.710;2023-09-30T12:59:53;6.20;;;3.55;;
10122;SDS011;5101;49.038;8.710;2023-09-30T13:02:18;4.90;;;3.35;;
10122;SDS011;5101;49.038;8.710;2023-09-30T13:04:44;4.28;;;3.22;;
10122;SDS011;5101;49.038;8.710;2023-09-30T13:07:11;5.75;;;3.55;;
10122;SDS011;5101;49.038;8.710;2023-09-30T13:09:40;6.82;;;4.00;;
10122;SDS011;5101;49.038;8.710;2023-09-30T13:12:06;7.28;;;3.83;;
10122;SDS011;5101;49.038;8.710;2023-09-30T13:14:32;6.05;;;3.55;;
10122;SDS011;5101;49.038;8.710;2023-09-30T13:16:58;6.15;;;3.78;;
10122;SDS011;5101;49.038;8.710;2023-09-30T13:19:23;6.50;;;3.70;;
10122;SDS011;5101;49.038;8.710;2023-09-30T13:21:49;7.35;;;4.18;;
10122;SDS011;5101;49.038;8.710;2023-09-30T13:24:16;5.43;;;3.88;;
10122;SDS011;5101;49.038;8.710;2023-09-30T13:26:41;5.90;;;4.10;;
10122;SDS011;5101;49.038;8.710;2023-09-30T13:29:07;5.97;;;3.67;;
10122;SDS011;5101;49.038;8.710;2023-09-30T13:31:35;5.13;;;3.50;;
10122;SDS011;5101;49.038;8.710;2023-09-30T13:34:03;5.93;;;3.80;;
10122;SDS011;5101;49.038;8.710;2023-09-30T13:36:29;5.75;;;3.78;;
10122;SDS011;5101;49.038;8.710;2023-09-30T13:38:55;7.57;;;4.05;;
10122;SDS011;5101;49.038;8.710;2023-09-30T13:41:21;10.57;;;4.00;;
10122;SDS011;5101;49.038;8.710;2023-09-30T13:43:46;7.47;;;3.50;;
10122;SDS011;5101;49.038;8.710;2023-09-30T13:46:12;5.75;;;3.45;;
10122;SDS011;5101;49.038;8.710;2023-09-30T13:48:37;6.20;;;3.80;;
10122;SDS011;5101;49.038;8.710;2023-09-30T13:51:07;4.68;;;3.22;;
10122;SDS011;5101;49.038;8.710;2023-09-30T13:53:33;5.68;;;3.63;;
10122;SDS011;5101;49.038;8.710;2023-09-30T13:55:59;7.20;;;4.25;;
10122;SDS011;5101;49.038;8.710;2023-09-30T13:58:25;8.50;;;4.03;;
10122;SDS011;5101;49.038;8.710;2023-09-30T14:00:51;6.03;;;4.00;;
10122;SDS011;5101;49.038;8.710;2023-09-30T14:03:21;8.10;;;4.05;;
10122;SDS011;5101;49.038;8.710;2023-09-30T14:05:46;5.10;;;3.70;;
10122;SDS011;5101;49.038;8.710;2023-09-30T14:08:12;5.10;;;3.78;;
10122;SDS011;5101;49.038;8.710;2023-09-30T14:10:38;6.97;;;4.15;;
10122;SDS011;5101;49.038;8.710;2023-09-30T14:13:03;6.68;;;3.97;;
10122;SDS011;5101;49.038;8.710;2023-09-30T14:15:29;6.40;;;4.15;;
10122;SDS011;5101;49.038;8.710;2023-09-30T14:17:56;7.32;;;3.75;;
10122;SDS011;5101;49.038;8.710;2023-09-30T14:20:23;6.68;;;4.15;;
10122;SDS011;5101;49.038;8.710;2023-09-30T14:22:50;6.85;;;3.88;;
10122;SDS011;5101;49.038;8.710;2023-09-30T14:25:20;6.00;;;3.95;;
10122;SDS011;5101;49.038;8.710;2023-09-30T14:27:47;6.63;;;3.92;;
10122;SDS011;5101;49.038;8.710;2023-09-30T14:30:12;4.93;;;3.65;;
10122;SDS011;5101;49.038;8.710;2023-09-30T14:32:38;8.57;;;4.07;;
10122;SDS011;5101;49.038;8.710;2023-09-30T14:35:05;6.75;;;4.13;;
10122;SDS011;5101;49.038;8.710;2023-09-30T14:37:31;9.30;;;4.45;;
10122;SDS011;5101;49.038;8.710;2023-09-30T14:39:56;5.10;;;3.45;;
10122;SDS011;5101;49.038;8.710;2023-09-30T14:42:22;6.65;;;4.28;;
10122;SDS011;5101;49.038;8.710;2023-09-30T14:44:47;5.75;;;4.13;;
10122;SDS011;5101;49.038;8.710;2023-09-30T14:47:13;7.20;;;3.85;;
10122;SDS011;5101;49.038;8.710;2023-09-30T14:49:39;5.60;;;4.03;;
10122;SDS011;5101;49.038;8.710;2023-09-30T14:52:05;5.88;;;4.40;;
10122;SDS011;5101;49.038;8.710;2023-09-30T14:54:31;9.35;;;4.60;;
10122;SDS011;5101;49.038;8.710;2023-09-30T14:56:56;8.30;;;4.35;;
10122;SDS011;5101;49.038;8.710;2023-09-30T14:59:22;6.95;;;4.13;;
10122;SDS011;5101;49.038;8.710;2023-09-30T15:01:48;5.38;;;3.75;;
10122;SDS011;5101;49.038;8.710;2023-09-30T15:04:14;7.82;;;4.07;;
10122;SDS011;5101;49.038;8.710;2023-09-30T15:06:42;6.63;;;3.97;;
10122;SDS011;5101;49.038;8.710;2023-09-30T15:09:08;5.75;;;4.18;;
10122;SDS011;5101;49.038;8.710;2023-09-30T15:11:36;6.45;;;4.07;;
10122;SDS011;5101;49.038;8.710;2023-09-30T15:14:02;7.00;;;3.90;;
10122;SDS011;5101;49.038;8.710;2023-09-30T15:16:30;10.02;;;4.38;;
10122;SDS011;5101;49.038;8.710;2023-09-30T15:18:56;6.70;;;4.20;;
10122;SDS011;5101;49.038;8.710;2023-09-30T15:21:21;8.10;;;4.50;;